sensor_id;sensor_type;location;lat;lon;timestamp;P1;durP1;ratioP1;P2;durP2;ratioP2
1753;SDS011;58380;48.312;9.246;2024-02-28T07:07:45;44.00;;;16.63;;
1753;SDS011;58380;48.312;9.246;2024-02-28T07:10:46;43.10;;;20.30;;
1753;SDS011;58380;48.312;9.246;2024-02-28T07:13:49;48.00;;;20.88;;
1753;SDS011;58380;48.312;9.246;2024-02-28T07:16:49;48.88;;;22.15;;
1753;SDS011;58380;48.312;9.246;2024-02-28T07:19:52;47.08;;;22.02;;
1753;SDS011;58380;48.312;9.246;2024-02-28T07:22:52;42.88;;;21.30;;
1753;SDS011;58380;48.312;9.246;2024-02-28T07:25:52;41.90;;;21.05;;
1753;SDS011;58380;48.312;9.246;2024-02-28T07:28:53;42.13;;;21.95;;
1753;SDS011;58380;48.312;9.246;2024-02-28T07:31:53;39.78;;;18.92;;
1753;SDS011;58380;48.312;9.246;2024-02-28T07:34:54;41.60;;;20.08;;
1753;SDS011;58380;48.312;9.246;2024-02-28T07:37:55;39.35;;;19.88;;
1753;SDS011;58380;48.312;9.246;2024-02-28T07:40:55;37.63;;;20.25;;
1753;SDS011;58380;48.312;9.246;2024-02-28T07:43:56;37.00;;;19.77;;
1753;SDS011;58380;48.312;9.246;2024-02-28T07:46:57;37.25;;;19.58;;
1753;SDS011;58380;48.312;9.246;2024-02-28T07:49:58;33.63;;;20.13;;
1753;SDS011;58380;48.312;9.246;2024-02-28T07:52:59;38.95;;;22.10;;
1753;SDS011;58380;48.312;9.246;2024-02-28T07:55:59;37.25;;;21.25;;
1753;SDS011;58380;48.312;9.246;2024-02-28T07:59:00;36.25;;;20.63;;
1753;SDS011;58380;48.312;9.246;2024-02-28T08:02:00;38.13;;;22.42;;
1753;SDS011;58380;48.312;9.246;2024-02-28T08:05:00;33.53;;;19.90;;
1753;SDS011;58380;48.312;9.246;2024-02-28T08:08:01;34.63;;;20.90;;
1753;SDS011;58380;48.312;9.246;2024-02-28T08:11:01;31.95;;;19.08;;
1753;SDS011;58380;48.312;9.246;2024-02-28T08:14:03;33.90;;;20.02;;
1753;SDS011;58380;48.312;9.246;2024-02-28T08:17:03;31.52;;;19.02;;
1753;SDS011;58380;48.312;9.246;2024-02-28T08:20:04;32.35;;;18.00;;
1753;SDS011;58380;48.312;9.246;2024-02-28T08:23:06;29.52;;;18.27;;
1753;SDS011;58380;48.312;9.246;2024-02-28T08:26:06;30.70;;;19.08;;
1753;SDS011;58380;48.312;9.246;2024-02-28T08:29:07;32.05;;;18.75;;
1753;SDS011;58380;48.312;9.246;2024-02-28T08:32:07;32.85;;;18.90;;
1753;SDS011;58380;48.312;9.246;2024-02-28T08:35:08;37.38;;;20.33;;
1753;SDS011;58380;48.312;9.246;2024-02-28T08:38:10;34.83;;;20.25;;
1753;SDS011;58380;48.312;9.246;2024-02-28T08:41:10;35.83;;;19.55;;
1753;SDS011;58380;48.312;9.246;2024-02-28T08:44:12;35.08;;;19.30;;
1753;SDS011;58380;48.312;9.246;2024-02-28T08:47:12;36.67;;;20.40;;
1753;SDS011;58380;48.312;9.246;2024-02-28T08:50:13;34.25;;;19.95;;
1753;SDS011;58380;48.312;9.246;2024-02-28T08:53:14;38.35;;;20.88;;
1753;SDS011;58380;48.312;9.246;2024-02-28T08:56:14;34.90;;;19.67;;
1753;SDS011;58380;48.312;9.246;2024-02-28T08:59:14;33.97;;;20.02;;
1753;SDS011;58380;48.312;9.246;2024-02-28T09:02:15;34.50;;;20.58;;
1753;SDS011;58380;48.312;9.246;2024-02-28T09:05:15;37.55;;;19.73;;
1753;SDS011;58380;48.312;9.246;2024-02-28T09:08:16;35.67;;;21.38;;
1753;SDS011;58380;48.312;9.246;2024-02-28T09:11:16;36.08;;;20.27;;
1753;SDS011;58380;48.312;9.246;2024-02-28T09:14:16;35.55;;;20.08;;
1753;SDS011;58380;48.312;9.246;2024-02-28T09:17:17;35.55;;;19.58;;
1753;SDS011;58380;48.312;9.246;2024-02-28T09:20:17;36.10;;;20.50;;
1753;SDS011;58380;48.312;9.246;2024-02-28T09:23:18;33.10;;;20.30;;
1753;SDS011;58380;48.312;9.246;2024-02-28T09:26:18;31.92;;;19.80;;
1753;SDS011;58380;48.312;9.246;2024-02-28T09:29:19;31.20;;;18.58;;
1753;SDS011;58380;48.312;9.246;2024-02-28T09:32:19;29.55;;;19.00;;
1753;SDS011;58380;48.312;9.246;2024-02-28T09:35:20;33.33;;;19.70;;
1753;SDS011;58380;48.312;9.246;2024-02-28T09:38:20;31.60;;;18.98;;
1753;SDS011;58380;48.312;9.246;2024-02-28T09:41:21;33.40;;;18.83;;
1753;SDS011;58380;48.312;9.246;2024-02-28T09:44:26;31.13;;;18.65;;
1753;SDS011;58380;48.312;9.246;2024-02-28T09:47:27;30.83;;;18.05;;
1753;SDS011;58380;48.312;9.246;2024-02-28T09:50:27;30.75;;;18.30;;
1753;SDS011;58380;48.312;9.246;2024-02-28T09:53:28;30.58;;;19.00;;
1753;SDS011;58380;48.312;9.246;2024-02-28T09:56:28;33.80;;;19.35;;
1753;SDS011;58380;48.312;9.246;2024-02-28T09:59:28;32.20;;;18.90;;
1753;SDS011;58380;48.312;9.246;2024-02-28T10:02:30;33.60;;;18.85;;
1753;SDS011;58380;48.312;9.246;2024-02-28T10:05:32;35.25;;;18.60;;
1753;SDS011;58380;48.312;9.246;2024-02-28T10:08:34;33.55;;;19.35;;
1753;SDS011;58380;48.312;9.246;2024-02-28T10:11:37;33.38;;;20.45;;
1753;SDS011;58380;48.312;9.246;2024-02-28T10:14:37;31.60;;;19.75;;
1753;SDS011;58380;48.312;9.246;2024-02-28T10:17:38;32.60;;;19.23;;
1753;SDS011;58380;48.312;9.246;2024-02-28T10:20:39;33.03;;;18.90;;
1753;SDS011;58380;48.312;9.246;2024-02-28T10:23:39;29.88;;;17.90;;
1753;SDS011;58380;48.312;9.246;2024-02-28T10:26:43;32.03;;;18.90;;
1753;SDS011;58380;48.312;9.246;2024-02-28T10:29:44;28.13;;;17.20;;
1753;SDS011;58380;48.312;9.246;2024-02-28T10:32:49;30.35;;;18.98;;
1753;SDS011;58380;48.312;9.246;2024-02-28T10:35:50;30.95;;;18.20;;
1753;SDS011;58380;48.312;9.246;2024-02-28T10:38:53;27.80;;;17.50;;
1753;SDS011;58380;48.312;9.246;2024-02-28T10:41:56;28.70;;;17.75;;
1753;SDS011;58380;48.312;9.246;2024-02-28T10:45:00;28.17;;;18.02;;
1753;SDS011;58380;48.312;9.246;2024-02-28T10:48:02;30.52;;;17.98;;
1753;SDS011;58380;48.312;9.246;2024-02-28T10:51:04;29.40;;;17.02;;
1753;SDS011;58380;48.312;9.246;2024-02-28T10:54:07;24.80;;;15.90;;
1753;SDS011;58380;48.312;9.246;2024-02-28T10:57:13;26.93;;;16.87;;
1753;SDS011;58380;48.312;9.246;2024-02-28T11:00:17;26.55;;;17.15;;
1753;SDS011;58380;48.312;9.246;2024-02-28T11:03:18;26.73;;;16.17;;
1753;SDS011;58380;48.312;9.246;2024-02-28T11:06:20;29.83;;;17.35;;
1753;SDS011;58380;48.312;9.246;2024-02-28T11:09:22;30.67;;;17.33;;
1753;SDS011;58380;48.312;9.246;2024-02-28T11:12:26;25.55;;;16.05;;
1753;SDS011;58380;48.312;9.246;2024-02-28T11:15:28;25.83;;;15.32;;
1753;SDS011;58380;48.312;9.246;2024-02-28T11:18:29;28.30;;;16.52;;
1753;SDS011;58380;48.312;9.246;2024-02-28T11:21:33;27.40;;;16.38;;
1753;SDS011;58380;48.312;9.246;2024-02-28T11:24:35;25.08;;;16.95;;
1753;SDS011;58380;48.312;9.246;2024-02-28T11:27:46;28.23;;;16.35;;
1753;SDS011;58380;48.312;9.246;2024-02-28T11:30:48;28.17;;;16.30;;
1753;SDS011;58380;48.312;9.246;2024-02-28T11:33:48;28.58;;;17.30;;
1753;SDS011;58380;48.312;9.246;2024-02-28T11:36:49;30.95;;;18.05;;
1753;SDS011;58380;48.312;9.246;2024-02-28T11:39:51;31.00;;;17.65;;
1753;SDS011;58380;48.312;9.246;2024-02-28T11:42:52;31.67;;;17.65;;
1753;SDS011;58380;48.312;9.246;2024-02-28T11:45:53;28.83;;;17.85;;
1753;SDS011;58380;48.312;9.246;2024-02-28T11:48:55;31.45;;;18.33;;
1753;SDS011;58380;48.312;9.246;2024-02-28T11:51:56;28.63;;;16.58;;
1753;SDS011;58380;48.312;9.246;2024-02-28T11:54:56;46.95;;;19.33;;
1753;SDS011;58380;48.312;9.246;2024-02-28T11:57:57;32.75;;;18.38;;
1753;SDS011;58380;48.312;9.246;2024-02-28T12:00:57;27.52;;;17.50;;
1753;SDS011;58380;48.312;9.246;2024-02-28T12:03:58;27.08;;;17.02;;
1753;SDS011;58380;48.312;9.246;2024-02-28T12:06:58;29.40;;;17.90;;
1753;SDS011;58380;48.312;9.246;2024-02-28T12:09:59;27.98;;;17.52;;
1753;SDS011;58380;48.312;9.246;2024-02-28T12:13:00;26.13;;;15.32;;
1753;SDS011;58380;48.312;9.246;2024-02-28T12:16:01;24.73;;;14.55;;
1753;SDS011;58380;48.312;9.246;2024-02-28T12:19:08;21.63;;;14.30;;
1753;SDS011;58380;48.312;9.246;2024-02-28T12:22:10;24.95;;;14.02;;
1753;SDS011;58380;48.312;9.246;2024-02-28T12:25:11;21.35;;;13.77;;
1753;SDS011;58380;48.312;9.246;2024-02-28T12:28:11;21.83;;;14.23;;
1753;SDS011;58380;48.312;9.246;2024-02-28T12:31:13;23.60;;;14.07;;
1753;SDS011;58380;48.312;9.246;2024-02-28T12:34:13;20.77;;;13.15;;
1753;SDS011;58380;48.312;9.246;2024-02-28T12:37:15;23.70;;;15.15;;
1753;SDS011;58380;48.312;9.246;2024-02-28T12:40:16;23.25;;;14.35;;
1753;SDS011;58380;48.312;9.246;2024-02-28T12:43:16;23.88;;;14.80;;
1753;SDS011;58380;48.312;9.246;2024-02-28T12:46:17;23.25;;;14.43;;
1753;SDS011;58380;48.312;9.246;2024-02-28T12:49:17;20.85;;;12.77;;
1753;SDS011;58380;48.312;9.246;2024-02-28T12:52:18;22.88;;;14.05;;
1753;SDS011;58380;48.312;9.246;2024-02-28T12:55:18;20.02;;;13.35;;
1753;SDS011;58380;48.312;9.246;2024-02-28T12:58:21;23.35;;;14.68;;
1753;SDS011;58380;48.312;9.246;2024-02-28T13:01:25;23.25;;;15.10;;
1753;SDS011;58380;48.312;9.246;2024-02-28T13:04:26;22.48;;;15.13;;
1753;SDS011;58380;48.312;9.246;2024-02-28T13:07:29;28.40;;;15.93;;
1753;SDS011;58380;48.312;9.246;2024-02-28T13:10:30;25.33;;;16.40;;
1753;SDS011;58380;48.312;9.246;2024-02-28T13:13:30;25.75;;;15.40;;
1753;SDS011;58380;48.312;9.246;2024-02-28T13:16:31;26.42;;;16.75;;
1753;SDS011;58380;48.312;9.246;2024-02-28T13:19:31;27.90;;;17.45;;
1753;SDS011;58380;48.312;9.246;2024-02-28T13:22:31;27.75;;;16.60;;
1753;SDS011;58380;48.312;9.246;2024-02-28T13:25:32;28.17;;;17.15;;
1753;SDS011;58380;48.312;9.246;2024-02-28T13:28:33;24.95;;;16.35;;
1753;SDS011;58380;48.312;9.246;2024-02-28T13:31:35;26.35;;;15.65;;
1753;SDS011;58380;48.312;9.246;2024-02-28T13:34:36;26.20;;;16.48;;
1753;SDS011;58380;48.312;9.246;2024-02-28T13:37:36;25.45;;;16.60;;
1753;SDS011;58380;48.312;9.246;2024-02-28T13:40:40;31.73;;;17.70;;
1753;SDS011;58380;48.312;9.246;2024-02-28T13:43:41;29.02;;;17.42;;
1753;SDS011;58380;48.312;9.246;2024-02-28T13:46:41;30.23;;;18.55;;
1753;SDS011;58380;48.312;9.246;2024-02-28T13:49:42;28.35;;;17.20;;
1753;SDS011;58380;48.312;9.246;2024-02-28T13:52:43;31.70;;;19.50;;
1753;SDS011;58380;48.312;9.246;2024-02-28T13:55:46;27.73;;;17.63;;
1753;SDS011;58380;48.312;9.246;2024-02-28T13:58:47;28.17;;;18.48;;
1753;SDS011;58380;48.312;9.246;2024-02-28T14:01:48;33.53;;;19.50;;
1753;SDS011;58380;48.312;9.246;2024-02-28T14:04:49;30.35;;;18.70;;
1753;SDS011;58380;48.312;9.246;2024-02-28T14:07:49;26.30;;;16.60;;
1753;SDS011;58380;48.312;9.246;2024-02-28T14:10:50;28.85;;;17.65;;
1753;SDS011;58380;48.312;9.246;2024-02-28T14:13:50;33.50;;;19.00;;
1753;SDS011;58380;48.312;9.246;2024-02-28T14:16:51;32.78;;;19.13;;
1753;SDS011;58380;48.312;9.246;2024-02-28T14:19:51;32.90;;;19.42;;
1753;SDS011;58380;48.312;9.246;2024-02-28T14:22:51;34.70;;;20.23;;
1753;SDS011;58380;48.312;9.246;2024-02-28T14:25:54;33.17;;;18.75;;
1753;SDS011;58380;48.312;9.246;2024-02-28T14:28:54;32.10;;;19.13;;
1753;SDS011;58380;48.312;9.246;2024-02-28T14:31:55;33.55;;;19.23;;
1753;SDS011;58380;48.312;9.246;2024-02-28T14:34:56;33.92;;;19.60;;
1753;SDS011;58380;48.312;9.246;2024-02-28T14:37:56;33.90;;;18.23;;
1753;SDS011;58380;48.312;9.246;2024-02-28T14:40:57;34.10;;;18.80;;
1753;SDS011;58380;48.312;9.246;2024-02-28T14:43:57;31.98;;;19.25;;
1753;SDS011;58380;48.312;9.246;2024-02-28T14:46:58;31.27;;;18.15;;
1753;SDS011;58380;48.312;9.246;2024-02-28T14:49:58;33.30;;;18.30;;
1753;SDS011;58380;48.312;9.246;2024-02-28T14:52:59;28.27;;;17.73;;
1753;SDS011;58380;48.312;9.246;2024-02-28T14:55:59;29.38;;;18.02;;
1753;SDS011;58380;48.312;9.246;2024-02-28T14:59:00;29.10;;;17.27;;
1753;SDS011;58380;48.312;9.246;2024-02-28T15:02:00;28.88;;;18.15;;
1753;SDS011;58380;48.312;9.246;2024-02-28T15:05:01;34.50;;;19.63;;
1753;SDS011;58380;48.312;9.246;2024-02-28T15:08:06;29.90;;;18.65;;
1753;SDS011;58380;48.312;9.246;2024-02-28T15:11:06;31.58;;;19.40;;
1753;SDS011;58380;48.312;9.246;2024-02-28T15:14:07;31.83;;;18.52;;
1753;SDS011;58380;48.312;9.246;2024-02-28T15:17:08;29.05;;;18.67;;
1753;SDS011;58380;48.312;9.246;2024-02-28T15:20:08;29.58;;;18.75;;
1753;SDS011;58380;48.312;9.246;2024-02-28T15:23:09;30.58;;;18.35;;
1753;SDS011;58380;48.312;9.246;2024-02-28T15:26:09;29.90;;;18.88;;
1753;SDS011;58380;48.312;9.246;2024-02-28T15:29:10;32.88;;;18.15;;
1753;SDS011;58380;48.312;9.246;2024-02-28T15:32:11;34.30;;;18.70;;
1753;SDS011;58380;48.312;9.246;2024-02-28T15:35:11;29.05;;;18.42;;
1753;SDS011;58380;48.312;9.246;2024-02-28T15:38:12;32.47;;;19.55;;
1753;SDS011;58380;48.312;9.246;2024-02-28T15:41:13;31.13;;;18.77;;
1753;SDS011;58380;48.312;9.246;2024-02-28T15:44:13;40.60;;;20.60;;
1753;SDS011;58380;48.312;9.246;2024-02-28T15:47:14;30.08;;;18.90;;
1753;SDS011;58380;48.312;9.246;2024-02-28T15:50:14;31.63;;;18.42;;
1753;SDS011;58380;48.312;9.246;2024-02-28T15:53:14;32.53;;;18.98;;
1753;SDS011;58380;48.312;9.246;2024-02-28T15:56:15;31.33;;;19.60;;
1753;SDS011;58380;48.312;9.246;2024-02-28T15:59:16;33.38;;;19.67;;
1753;SDS011;58380;48.312;9.246;2024-02-28T16:02:16;31.27;;;18.58;;
1753;SDS011;58380;48.312;9.246;2024-02-28T16:05:17;33.88;;;18.33;;
1753;SDS011;58380;48.312;9.246;2024-02-28T16:08:17;36.22;;;20.65;;
1753;SDS011;58380;48.312;9.246;2024-02-28T16:11:19;32.05;;;18.13;;
1753;SDS011;58380;48.312;9.246;2024-02-28T16:14:20;41.33;;;23.45;;
1753;SDS011;58380;48.312;9.246;2024-02-28T16:17:20;34.65;;;19.58;;
1753;SDS011;58380;48.312;9.246;2024-02-28T16:20:21;35.17;;;19.55;;
1753;SDS011;58380;48.312;9.246;2024-02-28T16:23:24;36.97;;;20.98;;
1753;SDS011;58380;48.312;9.246;2024-02-28T16:26:24;34.33;;;18.45;;
1753;SDS011;58380;48.312;9.246;2024-02-28T16:29:24;35.00;;;19.77;;
1753;SDS011;58380;48.312;9.246;2024-02-28T16:32:25;30.73;;;18.67;;
1753;SDS011;58380;48.312;9.246;2024-02-28T16:35:26;33.65;;;19.17;;
1753;SDS011;58380;48.312;9.246;2024-02-28T16:38:26;31.60;;;18.92;;
1753;SDS011;58380;48.312;9.246;2024-02-28T16:41:26;34.50;;;19.98;;
1753;SDS011;58380;48.312;9.246;2024-02-28T16:44:27;33.42;;;19.35;;
1753;SDS011;58380;48.312;9.246;2024-02-28T16:47:27;32.00;;;19.58;;
1753;SDS011;58380;48.312;9.246;2024-02-28T16:50:28;35.40;;;19.45;;
1753;SDS011;58380;48.312;9.246;2024-02-28T16:53:28;32.25;;;18.05;;
1753;SDS011;58380;48.312;9.246;2024-02-28T16:56:31;33.55;;;19.90;;
1753;SDS011;58380;48.312;9.246;2024-02-28T16:59:31;38.83;;;19.45;;
1753;SDS011;58380;48.312;9.246;2024-02-28T17:02:31;31.75;;;18.83;;
1753;SDS011;58380;48.312;9.246;2024-02-28T17:05:32;32.08;;;18.83;;
1753;SDS011;58380;48.312;9.246;2024-02-28T17:08:33;33.35;;;18.85;;
1753;SDS011;58380;48.312;9.246;2024-02-28T17:11:34;34.65;;;18.08;;
1753;SDS011;58380;48.312;9.246;2024-02-28T17:14:35;31.13;;;17.63;;
1753;SDS011;58380;48.312;9.246;2024-02-28T17:17:37;31.85;;;17.48;;
1753;SDS011;58380;48.312;9.246;2024-02-28T17:20:37;30.80;;;18.10;;
1753;SDS011;58380;48.312;9.246;2024-02-28T17:23:38;32.10;;;17.50;;
1753;SDS011;58380;48.312;9.246;2024-02-28T17:26:39;29.75;;;17.33;;
1753;SDS011;58380;48.312;9.246;2024-02-28T17:29:39;30.63;;;17.27;;
1753;SDS011;58380;48.312;9.246;2024-02-28T17:32:40;34.83;;;17.52;;
1753;SDS011;58380;48.312;9.246;2024-02-28T17:35:40;30.80;;;17.50;;
1753;SDS011;58380;48.312;9.246;2024-02-28T17:38:41;33.03;;;18.05;;
1753;SDS011;58380;48.312;9.246;2024-02-28T17:41:43;35.17;;;18.27;;
1753;SDS011;58380;48.312;9.246;2024-02-28T17:44:45;34.28;;;18.65;;
1753;SDS011;58380;48.312;9.246;2024-02-28T17:47:45;31.30;;;17.25;;
1753;SDS011;58380;48.312;9.246;2024-02-28T17:50:46;32.40;;;17.25;;
1753;SDS011;58380;48.312;9.246;2024-02-28T17:53:46;29.52;;;16.98;;
1753;SDS011;58380;48.312;9.246;2024-02-28T17:56:47;29.52;;;17.42;;
1753;SDS011;58380;48.312;9.246;2024-02-28T17:59:49;27.40;;;16.02;;
1753;SDS011;58380;48.312;9.246;2024-02-28T18:02:49;31.75;;;17.10;;
1753;SDS011;58380;48.312;9.246;2024-02-28T18:05:50;32.88;;;17.45;;
1753;SDS011;58380;48.312;9.246;2024-02-28T18:08:50;30.60;;;17.23;;
1753;SDS011;58380;48.312;9.246;2024-02-28T18:11:51;29.98;;;17.10;;
1753;SDS011;58380;48.312;9.246;2024-02-28T18:14:51;28.58;;;15.73;;
1753;SDS011;58380;48.312;9.246;2024-02-28T18:17:51;30.65;;;16.77;;
1753;SDS011;58380;48.312;9.246;2024-02-28T18:20:53;31.33;;;16.13;;
1753;SDS011;58380;48.312;9.246;2024-02-28T18:23:54;29.15;;;14.85;;
1753;SDS011;58380;48.312;9.246;2024-02-28T18:26:55;28.80;;;16.88;;
1753;SDS011;58380;48.312;9.246;2024-02-28T18:29:55;29.75;;;16.02;;
1753;SDS011;58380;48.312;9.246;2024-02-28T18:32:56;29.08;;;14.48;;
1753;SDS011;58380;48.312;9.246;2024-02-28T18:35:56;30.70;;;14.63;;
1753;SDS011;58380;48.312;9.246;2024-02-28T18:38:59;27.08;;;15.18;;
1753;SDS011;58380;48.312;9.246;2024-02-28T18:42:02;28.95;;;16.02;;
1753;SDS011;58380;48.312;9.246;2024-02-28T18:45:03;30.58;;;15.38;;
1753;SDS011;58380;48.312;9.246;2024-02-28T18:48:06;30.20;;;15.45;;
1753;SDS011;58380;48.312;9.246;2024-02-28T18:51:07;34.40;;;15.98;;
1753;SDS011;58380;48.312;9.246;2024-02-28T18:54:07;27.42;;;14.75;;
1753;SDS011;58380;48.312;9.246;2024-02-28T18:57:08;29.35;;;14.07;;
1753;SDS011;58380;48.312;9.246;2024-02-28T19:00:08;30.52;;;14.60;;
1753;SDS011;58380;48.312;9.246;2024-02-28T19:03:11;30.17;;;14.70;;
1753;SDS011;58380;48.312;9.246;2024-02-28T19:06:11;29.15;;;15.43;;
1753;SDS011;58380;48.312;9.246;2024-02-28T19:09:12;33.40;;;15.82;;
1753;SDS011;58380;48.312;9.246;2024-02-28T19:12:12;31.65;;;15.98;;
1753;SDS011;58380;48.312;9.246;2024-02-28T19:15:13;31.15;;;16.40;;
1753;SDS011;58380;48.312;9.246;2024-02-28T19:18:14;38.90;;;19.58;;
1753;SDS011;58380;48.312;9.246;2024-02-28T19:21:14;26.27;;;14.48;;
1753;SDS011;58380;48.312;9.246;2024-02-28T19:24:15;30.33;;;14.70;;
1753;SDS011;58380;48.312;9.246;2024-02-28T19:27:16;26.58;;;13.93;;
1753;SDS011;58380;48.312;9.246;2024-02-28T19:30:17;29.30;;;14.18;;
1753;SDS011;58380;48.312;9.246;2024-02-28T19:33:17;29.15;;;13.55;;
1753;SDS011;58380;48.312;9.246;2024-02-28T19:36:19;27.08;;;14.27;;
1753;SDS011;58380;48.312;9.246;2024-02-28T19:39:20;29.05;;;14.52;;
1753;SDS011;58380;48.312;9.246;2024-02-28T19:42:21;26.65;;;13.30;;
1753;SDS011;58380;48.312;9.246;2024-02-28T19:45:21;33.60;;;14.73;;
1753;SDS011;58380;48.312;9.246;2024-02-28T19:48:22;34.33;;;15.35;;
1753;SDS011;58380;48.312;9.246;2024-02-28T19:51:22;29.15;;;14.73;;
1753;SDS011;58380;48.312;9.246;2024-02-28T19:54:23;27.35;;;13.95;;
1753;SDS011;58380;48.312;9.246;2024-02-28T19:57:23;31.77;;;15.73;;
1753;SDS011;58380;48.312;9.246;2024-02-28T20:00:24;32.33;;;14.88;;
1753;SDS011;58380;48.312;9.246;2024-02-28T20:03:24;30.98;;;14.48;;
1753;SDS011;58380;48.312;9.246;2024-02-28T20:06:24;32.70;;;14.82;;
1753;SDS011;58380;48.312;9.246;2024-02-28T20:09:25;28.52;;;14.45;;
1753;SDS011;58380;48.312;9.246;2024-02-28T20:12:25;32.67;;;15.88;;
1753;SDS011;58380;48.312;9.246;2024-02-28T20:15:26;33.28;;;15.20;;
1753;SDS011;58380;48.312;9.246;2024-02-28T20:18:26;33.33;;;16.00;;
1753;SDS011;58380;48.312;9.246;2024-02-28T20:21:27;30.77;;;15.70;;
1753;SDS011;58380;48.312;9.246;2024-02-28T20:24:28;35.00;;;16.85;;
1753;SDS011;58380;48.312;9.246;2024-02-28T20:27:28;29.00;;;15.73;;
1753;SDS011;58380;48.312;9.246;2024-02-28T20:30:28;30.00;;;16.30;;
1753;SDS011;58380;48.312;9.246;2024-02-28T20:33:29;34.13;;;16.95;;
1753;SDS011;58380;48.312;9.246;2024-02-28T20:36:29;32.60;;;16.08;;
1753;SDS011;58380;48.312;9.246;2024-02-28T20:39:30;33.58;;;17.73;;
1753;SDS011;58380;48.312;9.246;2024-02-28T20:42:30;32.97;;;16.55;;
1753;SDS011;58380;48.312;9.246;2024-02-28T20:45:32;37.72;;;18.80;;
1753;SDS011;58380;48.312;9.246;2024-02-28T20:48:34;51.30;;;22.70;;
1753;SDS011;58380;48.312;9.246;2024-02-28T20:51:35;45.83;;;21.23;;
1753;SDS011;58380;48.312;9.246;2024-02-28T20:54:35;43.42;;;21.63;;
1753;SDS011;58380;48.312;9.246;2024-02-28T20:57:36;52.83;;;24.50;;
1753;SDS011;58380;48.312;9.246;2024-02-28T21:00:39;72.97;;;34.22;;
1753;SDS011;58380;48.312;9.246;2024-02-28T21:03:39;69.65;;;33.88;;
1753;SDS011;58380;48.312;9.246;2024-02-28T21:06:40;72.03;;;33.92;;
1753;SDS011;58380;48.312;9.246;2024-02-28T21:09:41;52.38;;;26.08;;
1753;SDS011;58380;48.312;9.246;2024-02-28T21:12:42;43.97;;;22.92;;
1753;SDS011;58380;48.312;9.246;2024-02-28T21:15:42;52.47;;;25.05;;
1753;SDS011;58380;48.312;9.246;2024-02-28T21:18:43;50.95;;;24.77;;
1753;SDS011;58380;48.312;9.246;2024-02-28T21:21:43;49.17;;;24.88;;
1753;SDS011;58380;48.312;9.246;2024-02-28T21:24:43;55.80;;;25.60;;
1753;SDS011;58380;48.312;9.246;2024-02-28T21:27:44;68.93;;;33.90;;
1753;SDS011;58380;48.312;9.246;2024-02-28T21:30:45;78.13;;;35.83;;
1753;SDS011;58380;48.312;9.246;2024-02-28T21:33:45;86.53;;;40.80;;
1753;SDS011;58380;48.312;9.246;2024-02-28T21:36:46;76.50;;;38.08;;
1753;SDS011;58380;48.312;9.246;2024-02-28T21:39:46;74.22;;;37.85;;
1753;SDS011;58380;48.312;9.246;2024-02-28T21:42:47;67.75;;;36.88;;
1753;SDS011;58380;48.312;9.246;2024-02-28T21:45:48;67.53;;;35.50;;
1753;SDS011;58380;48.312;9.246;2024-02-28T21:48:48;69.93;;;35.80;;
1753;SDS011;58380;48.312;9.246;2024-02-28T21:51:48;61.30;;;31.35;;
1753;SDS011;58380;48.312;9.246;2024-02-28T21:54:50;62.03;;;30.80;;
1753;SDS011;58380;48.312;9.246;2024-02-28T21:57:53;56.03;;;28.38;;
1753;SDS011;58380;48.312;9.246;2024-02-28T22:00:54;62.08;;;29.42;;
1753;SDS011;58380;48.312;9.246;2024-02-28T22:03:54;66.22;;;30.13;;
1753;SDS011;58380;48.312;9.246;2024-02-28T22:06:55;65.32;;;29.63;;
1753;SDS011;58380;48.312;9.246;2024-02-28T22:09:56;77.45;;;31.38;;
1753;SDS011;58380;48.312;9.246;2024-02-28T22:12:56;80.63;;;32.72;;
1753;SDS011;58380;48.312;9.246;2024-02-28T22:15:57;118.93;;;35.17;;
1753;SDS011;58380;48.312;9.246;2024-02-28T22:18:57;81.45;;;32.92;;
1753;SDS011;58380;48.312;9.246;2024-02-28T22:22:01;82.93;;;33.28;;
